sensor_id;sensor_type;location;lat;lon;timestamp;temperature;humidity
7360;DHT22;3720;48.274;7.796;2023-03-01T00:00:41;-0.70;99.90
7360;DHT22;3720;48.274;7.796;2023-03-01T00:03:16;-0.70;99.90
7360;DHT22;3720;48.274;7.796;2023-03-01T00:05:49;-0.70;99.90
7360;DHT22;3720;48.274;7.796;2023-03-01T00:08:22;-0.70;99.90
7360;DHT22;3720;48.274;7.796;2023-03-01T00:11:01;-0.80;99.90
7360;DHT22;3720;48.274;7.796;2023-03-01T00:13:34;-0.70;99.90
7360;DHT22;3720;48.274;7.796;2023-03-01T00:16:08;-0.70;99.90
7360;DHT22;3720;48.274;7.796;2023-03-01T00:18:41;-0.70;99.90
7360;DHT22;3720;48.274;7.796;2023-03-01T00:21:14;-0.80;99.90
7360;DHT22;3720;48.274;7.796;2023-03-01T00:23:48;-0.80;99.90
7360;DHT22;3720;48.274;7.796;2023-03-01T00:26:22;-0.80;99.90
7360;DHT22;3720;48.274;7.796;2023-03-01T00:28:54;-0.80;99.90
7360;DHT22;3720;48.274;7.796;2023-03-01T00:31:28;-0.80;99.90
7360;DHT22;3720;48.274;7.796;2023-03-01T00:34:02;-0.80;99.90
7360;DHT22;3720;48.274;7.796;2023-03-01T00:36:37;-0.80;99.90
7360;DHT22;3720;48.274;7.796;2023-03-01T00:39:13;-0.80;99.90
7360;DHT22;3720;48.274;7.796;2023-03-01T00:41:45;-0.80;99.90
7360;DHT22;3720;48.274;7.796;2023-03-01T00:44:17;-0.80;99.90
7360;DHT22;3720;48.274;7.796;2023-03-01T00:46:49;-0.80;99.90
7360;DHT22;3720;48.274;7.796;2023-03-01T00:49:21;-0.80;99.90
7360;DHT22;3720;48.274;7.796;2023-03-01T00:51:54;-0.80;99.90
7360;DHT22;3720;48.274;7.796;2023-03-01T00:54:28;-0.90;99.90
7360;DHT22;3720;48.274;7.796;2023-03-01T00:56:59;-0.90;99.90
7360;DHT22;3720;48.274;7.796;2023-03-01T00:59:32;-0.80;99.90
7360;DHT22;3720;48.274;7.796;2023-03-01T01:02:05;-0.90;99.90
7360;DHT22;3720;48.274;7.796;2023-03-01T01:04:37;-0.90;99.90
7360;DHT22;3720;48.274;7.796;2023-03-01T01:07:09;-0.90;99.90
7360;DHT22;3720;48.274;7.796;2023-03-01T01:09:42;-0.90;99.90
7360;DHT22;3720;48.274;7.796;2023-03-01T01:12:14;-1.00;99.90
7360;DHT22;3720;48.274;7.796;2023-03-01T01:14:46;-1.00;99.90
7360;DHT22;3720;48.274;7.796;2023-03-01T01:17:18;-1.10;99.90
7360;DHT22;3720;48.274;7.796;2023-03-01T01:19:49;-1.10;99.90
7360;DHT22;3720;48.274;7.796;2023-03-01T01:22:21;-1.20;99.90
7360;DHT22;3720;48.274;7.796;2023-03-01T01:24:55;-1.10;99.90
7360;DHT22;3720;48.274;7.796;2023-03-01T01:27:26;-1.10;99.90
7360;DHT22;3720;48.274;7.796;2023-03-01T01:29:58;-1.10;99.90
7360;DHT22;3720;48.274;7.796;2023-03-01T01:32:30;-1.10;99.90
7360;DHT22;3720;48.274;7.796;2023-03-01T01:35:02;-1.10;99.90
7360;DHT22;3720;48.274;7.796;2023-03-01T01:37:34;-1.10;99.90
7360;DHT22;3720;48.274;7.796;2023-03-01T01:40:10;-1.10;99.90
7360;DHT22;3720;48.274;7.796;2023-03-01T01:42:42;-1.10;99.90
7360;DHT22;3720;48.274;7.796;2023-03-01T01:45:31;-1.10;99.90
7360;DHT22;3720;48.274;7.796;2023-03-01T01:48:06;-1.00;99.90
7360;DHT22;3720;48.274;7.796;2023-03-01T01:50:42;-1.00;99.90
7360;DHT22;3720;48.274;7.796;2023-03-01T01:53:19;-1.00;99.90
7360;DHT22;3720;48.274;7.796;2023-03-01T01:55:54;-1.00;99.90
7360;DHT22;3720;48.274;7.796;2023-03-01T01:58:29;-1.00;99.90
7360;DHT22;3720;48.274;7.796;2023-03-01T02:01:02;-1.00;99.90
7360;DHT22;3720;48.274;7.796;2023-03-01T02:03:37;-1.10;99.90
7360;DHT22;3720;48.274;7.796;2023-03-01T02:06:19;-1.10;99.90
7360;DHT22;3720;48.274;7.796;2023-03-01T02:08:57;-1.00;99.90
7360;DHT22;3720;48.274;7.796;2023-03-01T02:11:32;-0.90;99.90
7360;DHT22;3720;48.274;7.796;2023-03-01T02:14:04;-0.90;99.90
7360;DHT22;3720;48.274;7.796;2023-03-01T02:16:37;-1.00;99.90
7360;DHT22;3720;48.274;7.796;2023-03-01T02:19:11;-1.00;99.90
7360;DHT22;3720;48.274;7.796;2023-03-01T02:21:49;-1.00;99.90
7360;DHT22;3720;48.274;7.796;2023-03-01T02:24:29;-1.00;99.90
7360;DHT22;3720;48.274;7.796;2023-03-01T02:27:04;-1.00;99.90
7360;DHT22;3720;48.274;7.796;2023-03-01T02:29:38;-1.00;99.90
7360;DHT22;3720;48.274;7.796;2023-03-01T02:32:12;-1.00;99.90
7360;DHT22;3720;48.274;7.796;2023-03-01T02:34:45;-1.00;99.90
7360;DHT22;3720;48.274;7.796;2023-03-01T02:37:19;-1.10;99.90
7360;DHT22;3720;48.274;7.796;2023-03-01T02:39:59;-1.00;99.90
7360;DHT22;3720;48.274;7.796;2023-03-01T02:42:35;-1.00;99.90
7360;DHT22;3720;48.274;7.796;2023-03-01T02:45:10;-1.10;99.90
7360;DHT22;3720;48.274;7.796;2023-03-01T02:47:42;-1.10;99.90
7360;DHT22;3720;48.274;7.796;2023-03-01T02:50:25;-1.10;99.90
7360;DHT22;3720;48.274;7.796;2023-03-01T02:53:03;-1.10;99.90
7360;DHT22;3720;48.274;7.796;2023-03-01T02:55:36;-1.10;99.90
7360;DHT22;3720;48.274;7.796;2023-03-01T02:58:09;-1.10;99.90
7360;DHT22;3720;48.274;7.796;2023-03-01T03:00:43;-1.10;99.90
7360;DHT22;3720;48.274;7.796;2023-03-01T03:03:16;-1.10;99.90
7360;DHT22;3720;48.274;7.796;2023-03-01T03:05:49;-1.10;99.90
7360;DHT22;3720;48.274;7.796;2023-03-01T03:08:21;-1.20;99.90
7360;DHT22;3720;48.274;7.796;2023-03-01T03:10:54;-1.20;99.90
7360;DHT22;3720;48.274;7.796;2023-03-01T03:13:26;-1.20;99.90
7360;DHT22;3720;48.274;7.796;2023-03-01T03:16:02;-1.20;99.90
7360;DHT22;3720;48.274;7.796;2023-03-01T03:18:34;-1.20;99.90
7360;DHT22;3720;48.274;7.796;2023-03-01T03:21:07;-1.30;99.90
7360;DHT22;3720;48.274;7.796;2023-03-01T03:23:40;-1.20;99.90
7360;DHT22;3720;48.274;7.796;2023-03-01T03:26:12;-1.30;99.90
7360;DHT22;3720;48.274;7.796;2023-03-01T03:28:45;-1.30;99.90
7360;DHT22;3720;48.274;7.796;2023-03-01T03:31:18;-1.30;99.90
7360;DHT22;3720;48.274;7.796;2023-03-01T03:33:50;-1.30;99.90
7360;DHT22;3720;48.274;7.796;2023-03-01T03:36:23;-1.40;99.90
7360;DHT22;3720;48.274;7.796;2023-03-01T03:38:56;-1.40;99.90
7360;DHT22;3720;48.274;7.796;2023-03-01T03:41:27;-1.40;99.90
7360;DHT22;3720;48.274;7.796;2023-03-01T03:43:59;-1.40;99.90
7360;DHT22;3720;48.274;7.796;2023-03-01T03:46:33;-1.40;99.90
7360;DHT22;3720;48.274;7.796;2023-03-01T03:49:04;-1.50;99.90
7360;DHT22;3720;48.274;7.796;2023-03-01T03:51:36;-1.60;99.90
7360;DHT22;3720;48.274;7.796;2023-03-01T03:54:08;-1.50;99.90
7360;DHT22;3720;48.274;7.796;2023-03-01T03:56:41;-1.50;99.90
7360;DHT22;3720;48.274;7.796;2023-03-01T03:59:14;-1.60;99.90
7360;DHT22;3720;48.274;7.796;2023-03-01T04:01:47;-1.60;99.90
7360;DHT22;3720;48.274;7.796;2023-03-01T04:04:19;-1.60;99.90
7360;DHT22;3720;48.274;7.796;2023-03-01T04:06:51;-1.60;99.90
7360;DHT22;3720;48.274;7.796;2023-03-01T04:09:23;-1.60;99.90
7360;DHT22;3720;48.274;7.796;2023-03-01T04:11:55;-1.60;99.90
7360;DHT22;3720;48.274;7.796;2023-03-01T04:14:27;-1.60;99.90
7360;DHT22;3720;48.274;7.796;2023-03-01T04:17:00;-1.50;99.90
7360;DHT22;3720;48.274;7.796;2023-03-01T04:19:35;-1.50;99.90
7360;DHT22;3720;48.274;7.796;2023-03-01T04:22:06;-1.50;99.90
7360;DHT22;3720;48.274;7.796;2023-03-01T04:24:39;-1.50;99.90
7360;DHT22;3720;48.274;7.796;2023-03-01T04:27:11;-1.40;99.90
7360;DHT22;3720;48.274;7.796;2023-03-01T04:29:43;-1.40;99.90
7360;DHT22;3720;48.274;7.796;2023-03-01T04:32:17;-1.40;99.90
7360;DHT22;3720;48.274;7.796;2023-03-01T04:34:48;-1.40;99.90
7360;DHT22;3720;48.274;7.796;2023-03-01T04:37:20;-1.30;99.90
7360;DHT22;3720;48.274;7.796;2023-03-01T04:39:53;-1.30;99.90
7360;DHT22;3720;48.274;7.796;2023-03-01T04:42:25;-1.30;99.90
7360;DHT22;3720;48.274;7.796;2023-03-01T04:44:57;-1.20;99.90
7360;DHT22;3720;48.274;7.796;2023-03-01T04:47:30;-1.20;99.90
7360;DHT22;3720;48.274;7.796;2023-03-01T04:50:02;-1.10;99.90
7360;DHT22;3720;48.274;7.796;2023-03-01T04:52:34;-1.20;99.90
7360;DHT22;3720;48.274;7.796;2023-03-01T04:55:07;-1.20;99.90
7360;DHT22;3720;48.274;7.796;2023-03-01T04:57:40;-1.10;99.90
7360;DHT22;3720;48.274;7.796;2023-03-01T05:00:14;-1.10;99.90
7360;DHT22;3720;48.274;7.796;2023-03-01T05:02:55;-1.00;99.90
7360;DHT22;3720;48.274;7.796;2023-03-01T05:05:28;-1.00;99.90
7360;DHT22;3720;48.274;7.796;2023-03-01T05:08:02;-1.00;99.90
7360;DHT22;3720;48.274;7.796;2023-03-01T05:10:36;-0.90;99.90
7360;DHT22;3720;48.274;7.796;2023-03-01T05:13:09;-0.90;99.90
7360;DHT22;3720;48.274;7.796;2023-03-01T05:15:41;-0.90;99.90
7360;DHT22;3720;48.274;7.796;2023-03-01T05:18:14;-0.90;99.90
7360;DHT22;3720;48.274;7.796;2023-03-01T05:20:46;-0.90;99.90
7360;DHT22;3720;48.274;7.796;2023-03-01T05:23:18;-0.80;99.90
7360;DHT22;3720;48.274;7.796;2023-03-01T05:25:50;-0.80;99.90
7360;DHT22;3720;48.274;7.796;2023-03-01T05:28:22;-0.80;99.90
7360;DHT22;3720;48.274;7.796;2023-03-01T05:30:55;-0.80;99.90
7360;DHT22;3720;48.274;7.796;2023-03-01T05:33:28;-0.70;99.90
7360;DHT22;3720;48.274;7.796;2023-03-01T05:36:00;-0.70;99.90
7360;DHT22;3720;48.274;7.796;2023-03-01T05:38:32;-0.70;99.90
7360;DHT22;3720;48.274;7.796;2023-03-01T05:41:04;-0.70;99.90
7360;DHT22;3720;48.274;7.796;2023-03-01T05:43:36;-0.60;99.90
7360;DHT22;3720;48.274;7.796;2023-03-01T05:46:09;-0.60;99.90
7360;DHT22;3720;48.274;7.796;2023-03-01T05:48:44;-0.50;99.90
7360;DHT22;3720;48.274;7.796;2023-03-01T05:51:16;-0.60;99.90
7360;DHT22;3720;48.274;7.796;2023-03-01T05:53:49;-0.50;99.90
7360;DHT22;3720;48.274;7.796;2023-03-01T05:56:21;-0.50;99.90
7360;DHT22;3720;48.274;7.796;2023-03-01T05:58:54;-0.50;99.90
7360;DHT22;3720;48.274;7.796;2023-03-01T06:01:25;-0.50;99.90
7360;DHT22;3720;48.274;7.796;2023-03-01T06:03:59;-0.50;99.90
7360;DHT22;3720;48.274;7.796;2023-03-01T06:06:34;-0.40;99.90
7360;DHT22;3720;48.274;7.796;2023-03-01T06:09:07;-0.40;99.90
7360;DHT22;3720;48.274;7.796;2023-03-01T06:11:40;-0.40;99.90
7360;DHT22;3720;48.274;7.796;2023-03-01T06:14:12;-0.40;99.90
7360;DHT22;3720;48.274;7.796;2023-03-01T06:16:45;-0.40;99.90
7360;DHT22;3720;48.274;7.796;2023-03-01T06:19:18;-0.40;99.90
7360;DHT22;3720;48.274;7.796;2023-03-01T06:21:50;-0.40;99.90
7360;DHT22;3720;48.274;7.796;2023-03-01T06:24:22;-0.30;99.90
7360;DHT22;3720;48.274;7.796;2023-03-01T06:26:54;-0.30;99.90
7360;DHT22;3720;48.274;7.796;2023-03-01T06:29:26;-0.30;99.90
7360;DHT22;3720;48.274;7.796;2023-03-01T06:31:58;-0.30;99.90
7360;DHT22;3720;48.274;7.796;2023-03-01T06:34:31;-0.20;99.90
7360;DHT22;3720;48.274;7.796;2023-03-01T06:37:03;-0.20;99.90
7360;DHT22;3720;48.274;7.796;2023-03-01T06:39:35;-0.20;99.90
7360;DHT22;3720;48.274;7.796;2023-03-01T06:42:08;-0.20;99.90
7360;DHT22;3720;48.274;7.796;2023-03-01T06:44:40;-0.20;99.90
7360;DHT22;3720;48.274;7.796;2023-03-01T06:47:12;-0.20;99.90
7360;DHT22;3720;48.274;7.796;2023-03-01T06:49:46;-0.10;99.90
7360;DHT22;3720;48.274;7.796;2023-03-01T06:52:17;-0.10;99.90
7360;DHT22;3720;48.274;7.796;2023-03-01T06:54:49;-0.10;99.90
7360;DHT22;3720;48.274;7.796;2023-03-01T06:57:22;-0.10;99.90
7360;DHT22;3720;48.274;7.796;2023-03-01T06:59:54;-0.10;99.90
7360;DHT22;3720;48.274;7.796;2023-03-01T07:02:26;0.00;99.90
7360;DHT22;3720;48.274;7.796;2023-03-01T07:04:59;0.00;99.90
7360;DHT22;3720;48.274;7.796;2023-03-01T07:07:31;0.00;99.90
7360;DHT22;3720;48.274;7.796;2023-03-01T07:10:04;-0.10;99.90
7360;DHT22;3720;48.274;7.796;2023-03-01T07:12:36;0.00;99.90
7360;DHT22;3720;48.274;7.796;2023-03-01T07:15:09;0.00;99.90
7360;DHT22;3720;48.274;7.796;2023-03-01T07:17:42;0.00;99.90
7360;DHT22;3720;48.274;7.796;2023-03-01T07:20:17;0.10;99.90
7360;DHT22;3720;48.274;7.796;2023-03-01T07:22:49;0.10;99.90
7360;DHT22;3720;48.274;7.796;2023-03-01T07:25:20;0.10;99.90
7360;DHT22;3720;48.274;7.796;2023-03-01T07:27:53;0.20;99.90
7360;DHT22;3720;48.274;7.796;2023-03-01T07:30:25;0.10;99.90
7360;DHT22;3720;48.274;7.796;2023-03-01T07:32:58;0.20;99.90
7360;DHT22;3720;48.274;7.796;2023-03-01T07:35:32;0.20;99.90
7360;DHT22;3720;48.274;7.796;2023-03-01T07:38:04;0.20;99.90
7360;DHT22;3720;48.274;7.796;2023-03-01T07:40:36;0.20;99.90
7360;DHT22;3720;48.274;7.796;2023-03-01T07:43:08;0.20;99.90
7360;DHT22;3720;48.274;7.796;2023-03-01T07:45:40;0.20;99.90
7360;DHT22;3720;48.274;7.796;2023-03-01T07:48:12;0.20;99.90
7360;DHT22;3720;48.274;7.796;2023-03-01T07:50:45;0.20;99.90
7360;DHT22;3720;48.274;7.796;2023-03-01T07:53:17;0.30;99.90
7360;DHT22;3720;48.274;7.796;2023-03-01T07:55:48;0.30;99.90
7360;DHT22;3720;48.274;7.796;2023-03-01T07:58:20;0.40;99.90
7360;DHT22;3720;48.274;7.796;2023-03-01T08:00:52;0.40;99.90
7360;DHT22;3720;48.274;7.796;2023-03-01T08:03:24;0.40;99.90
7360;DHT22;3720;48.274;7.796;2023-03-01T08:05:59;0.40;99.90
7360;DHT22;3720;48.274;7.796;2023-03-01T08:08:31;0.40;99.90
7360;DHT22;3720;48.274;7.796;2023-03-01T08:11:05;0.30;99.90
7360;DHT22;3720;48.274;7.796;2023-03-01T08:13:38;0.30;99.90
7360;DHT22;3720;48.274;7.796;2023-03-01T08:16:12;0.40;99.90
7360;DHT22;3720;48.274;7.796;2023-03-01T08:18:44;0.50;99.90
7360;DHT22;3720;48.274;7.796;2023-03-01T08:21:18;0.50;99.90
7360;DHT22;3720;48.274;7.796;2023-03-01T08:23:50;0.50;99.90
7360;DHT22;3720;48.274;7.796;2023-03-01T08:26:22;0.60;99.90
7360;DHT22;3720;48.274;7.796;2023-03-01T08:28:54;0.60;99.90
7360;DHT22;3720;48.274;7.796;2023-03-01T08:31:28;0.60;99.90
7360;DHT22;3720;48.274;7.796;2023-03-01T08:34:01;0.70;99.90
7360;DHT22;3720;48.274;7.796;2023-03-01T08:36:37;0.70;99.90
7360;DHT22;3720;48.274;7.796;2023-03-01T08:39:12;0.80;99.90
7360;DHT22;3720;48.274;7.796;2023-03-01T08:41:45;0.90;99.90
7360;DHT22;3720;48.274;7.796;2023-03-01T08:44:17;0.90;99.90
7360;DHT22;3720;48.274;7.796;2023-03-01T08:46:51;0.90;99.90
7360;DHT22;3720;48.274;7.796;2023-03-01T08:49:23;0.90;99.90
7360;DHT22;3720;48.274;7.796;2023-03-01T08:51:56;1.00;99.90
7360;DHT22;3720;48.274;7.796;2023-03-01T08:54:28;1.10;99.90
7360;DHT22;3720;48.274;7.796;2023-03-01T08:57:01;1.20;99.90
7360;DHT22;3720;48.274;7.796;2023-03-01T08:59:33;1.20;99.90
7360;DHT22;3720;48.274;7.796;2023-03-01T09:02:12;1.30;99.90
7360;DHT22;3720;48.274;7.796;2023-03-01T09:04:44;1.30;99.90
7360;DHT22;3720;48.274;7.796;2023-03-01T09:07:18;1.50;99.90
7360;DHT22;3720;48.274;7.796;2023-03-01T09:09:50;1.50;99.90
7360;DHT22;3720;48.274;7.796;2023-03-01T09:12:24;1.50;99.90
7360;DHT22;3720;48.274;7.796;2023-03-01T09:14:56;1.60;99.90
7360;DHT22;3720;48.274;7.796;2023-03-01T09:17:28;1.50;99.90
7360;DHT22;3720;48.274;7.796;2023-03-01T09:20:00;1.60;99.90
7360;DHT22;3720;48.274;7.796;2023-03-01T09:22:34;1.70;99.90
7360;DHT22;3720;48.274;7.796;2023-03-01T09:25:06;1.70;99.90
7360;DHT22;3720;48.274;7.796;2023-03-01T09:27:38;1.80;99.90
7360;DHT22;3720;48.274;7.796;2023-03-01T09:30:11;1.80;99.90
7360;DHT22;3720;48.274;7.796;2023-03-01T09:32:43;1.80;99.90
7360;DHT22;3720;48.274;7.796;2023-03-01T09:35:16;1.90;99.90
7360;DHT22;3720;48.274;7.796;2023-03-01T09:37:49;2.00;99.90
7360;DHT22;3720;48.274;7.796;2023-03-01T09:40:24;2.10;99.90
7360;DHT22;3720;48.274;7.796;2023-03-01T09:43:02;2.20;99.90
7360;DHT22;3720;48.274;7.796;2023-03-01T09:45:40;2.30;99.90
7360;DHT22;3720;48.274;7.796;2023-03-01T09:48:16;2.30;99.90
7360;DHT22;3720;48.274;7.796;2023-03-01T09:50:48;2.40;99.90
7360;DHT22;3720;48.274;7.796;2023-03-01T09:53:32;2.50;99.90
7360;DHT22;3720;48.274;7.796;2023-03-01T09:56:12;2.60;99.90
7360;DHT22;3720;48.274;7.796;2023-03-01T09:58:49;2.70;99.90
7360;DHT22;3720;48.274;7.796;2023-03-01T10:01:32;2.90;99.90
7360;DHT22;3720;48.274;7.796;2023-03-01T10:04:18;3.00;99.90
7360;DHT22;3720;48.274;7.796;2023-03-01T10:07:05;3.10;99.90
7360;DHT22;3720;48.274;7.796;2023-03-01T10:09:41;3.20;99.90
7360;DHT22;3720;48.274;7.796;2023-03-01T10:12:16;3.40;99.90
7360;DHT22;3720;48.274;7.796;2023-03-01T10:14:55;3.50;99.90
7360;DHT22;3720;48.274;7.796;2023-03-01T10:17:34;3.70;99.90
7360;DHT22;3720;48.274;7.796;2023-03-01T10:20:18;3.70;99.90
7360;DHT22;3720;48.274;7.796;2023-03-01T10:22:51;3.90;99.90
7360;DHT22;3720;48.274;7.796;2023-03-01T10:25:40;4.00;99.90
7360;DHT22;3720;48.274;7.796;2023-03-01T10:28:17;4.20;99.90
7360;DHT22;3720;48.274;7.796;2023-03-01T10:30:50;4.50;99.90
7360;DHT22;3720;48.274;7.796;2023-03-01T10:33:25;4.80;99.90
7360;DHT22;3720;48.274;7.796;2023-03-01T10:35:58;5.20;99.90
7360;DHT22;3720;48.274;7.796;2023-03-01T10:38:31;5.80;99.90
7360;DHT22;3720;48.274;7.796;2023-03-01T10:41:20;6.50;99.90
7360;DHT22;3720;48.274;7.796;2023-03-01T10:43:55;7.10;99.90
7360;DHT22;3720;48.274;7.796;2023-03-01T10:46:29;7.60;99.90
7360;DHT22;3720;48.274;7.796;2023-03-01T10:49:14;8.00;99.90
7360;DHT22;3720;48.274;7.796;2023-03-01T10:51:48;8.50;99.90
7360;DHT22;3720;48.274;7.796;2023-03-01T10:54:22;8.60;99.90
7360;DHT22;3720;48.274;7.796;2023-03-01T10:56:58;9.00;99.90
7360;DHT22;3720;48.274;7.796;2023-03-01T10:59:33;9.30;99.90
7360;DHT22;3720;48.274;7.796;2023-03-01T11:02:16;9.60;99.90
7360;DHT22;3720;48.274;7.796;2023-03-01T11:04:58;10.00;99.90
7360;DHT22;3720;48.274;7.796;2023-03-01T11:07:30;10.20;99.90
7360;DHT22;3720;48.274;7.796;2023-03-01T11:10:11;10.50;99.90
7360;DHT22;3720;48.274;7.796;2023-03-01T11:12:45;10.60;99.90
7360;DHT22;3720;48.274;7.796;2023-03-01T11:15:23;10.80;99.90
7360;DHT22;3720;48.274;7.796;2023-03-01T11:17:56;11.10;99.90
7360;DHT22;3720;48.274;7.796;2023-03-01T11:20:31;11.30;99.90
7360;DHT22;3720;48.274;7.796;2023-03-01T11:23:08;11.70;99.90
7360;DHT22;3720;48.274;7.796;2023-03-01T11:25:44;11.90;99.90
7360;DHT22;3720;48.274;7.796;2023-03-01T11:28:21;12.20;99.90
7360;DHT22;3720;48.274;7.796;2023-03-01T11:30:55;12.40;99.90
7360;DHT22;3720;48.274;7.796;2023-03-01T11:33:35;12.50;99.90
7360;DHT22;3720;48.274;7.796;2023-03-01T11:36:17;12.70;99.90
7360;DHT22;3720;48.274;7.796;2023-03-01T11:38:52;12.80;99.90
7360;DHT22;3720;48.274;7.796;2023-03-01T11:41:27;13.00;99.90
7360;DHT22;3720;48.274;7.796;2023-03-01T11:44:03;13.30;99.90
7360;DHT22;3720;48.274;7.796;2023-03-01T11:47:03;13.60;99.90
7360;DHT22;3720;48.274;7.796;2023-03-01T11:50:01;13.80;99.90
7360;DHT22;3720;48.274;7.796;2023-03-01T11:52:45;14.20;99.90
7360;DHT22;3720;48.274;7.796;2023-03-01T11:55:30;14.40;99.90
7360;DHT22;3720;48.274;7.796;2023-03-01T11:58:18;14.50;99.90
7360;DHT22;3720;48.274;7.796;2023-03-01T12:01:07;14.50;99.30
7360;DHT22;3720;48.274;7.796;2023-03-01T12:03:51;14.60;99.60
7360;DHT22;3720;48.274;7.796;2023-03-01T12:06:39;14.70;98.20
7360;DHT22;3720;48.274;7.796;2023-03-01T12:09:26;14.90;98.40
7360;DHT22;3720;48.274;7.796;2023-03-01T12:12:17;15.20;98.50
7360;DHT22;3720;48.274;7.796;2023-03-01T12:18:06;15.40;96.10
7360;DHT22;3720;48.274;7.796;2023-03-01T12:20:44;15.40;95.30
7360;DHT22;3720;48.274;7.796;2023-03-01T12:23:27;15.50;95.10
7360;DHT22;3720;48.274;7.796;2023-03-01T12:26:08;15.70;94.60
7360;DHT22;3720;48.274;7.796;2023-03-01T12:28:55;15.80;94.10
7360;DHT22;3720;48.274;7.796;2023-03-01T12:31:44;15.90;92.40
7360;DHT22;3720;48.274;7.796;2023-03-01T12:37:31;15.70;92.40
7360;DHT22;3720;48.274;7.796;2023-03-01T12:40:20;15.70;91.60
7360;DHT22;3720;48.274;7.796;2023-03-01T12:43:09;15.70;91.20
7360;DHT22;3720;48.274;7.796;2023-03-01T12:45:54;15.60;91.80
7360;DHT22;3720;48.274;7.796;2023-03-01T12:48:41;15.60;91.60
7360;DHT22;3720;48.274;7.796;2023-03-01T12:51:19;15.70;91.20
7360;DHT22;3720;48.274;7.796;2023-03-01T12:53:54;15.80;90.40
7360;DHT22;3720;48.274;7.796;2023-03-01T12:56:29;15.80;90.40
7360;DHT22;3720;48.274;7.796;2023-03-01T12:59:08;15.80;89.90
7360;DHT22;3720;48.274;7.796;2023-03-01T13:01:48;15.80;90.50
7360;DHT22;3720;48.274;7.796;2023-03-01T13:04:33;15.90;90.20
7360;DHT22;3720;48.274;7.796;2023-03-01T13:07:25;15.90;89.40
7360;DHT22;3720;48.274;7.796;2023-03-01T13:10:18;16.00;89.00
7360;DHT22;3720;48.274;7.796;2023-03-01T13:13:01;15.90;89.00
7360;DHT22;3720;48.274;7.796;2023-03-01T13:15:34;15.80;89.60
7360;DHT22;3720;48.274;7.796;2023-03-01T13:18:28;15.90;88.50
7360;DHT22;3720;48.274;7.796;2023-03-01T13:21:02;16.00;88.70
7360;DHT22;3720;48.274;7.796;2023-03-01T13:23:38;16.10;88.70
7360;DHT22;3720;48.274;7.796;2023-03-01T13:26:12;16.10;87.00
7360;DHT22;3720;48.274;7.796;2023-03-01T13:28:50;15.90;87.30
7360;DHT22;3720;48.274;7.796;2023-03-01T13:35:02;15.70;88.00
7360;DHT22;3720;48.274;7.796;2023-03-01T13:37:37;15.70;87.80
7360;DHT22;3720;48.274;7.796;2023-03-01T13:43:31;15.80;86.10
7360;DHT22;3720;48.274;7.796;2023-03-01T13:46:09;15.90;85.80
7360;DHT22;3720;48.274;7.796;2023-03-01T13:48:45;15.80;86.40
7360;DHT22;3720;48.274;7.796;2023-03-01T13:51:21;15.70;85.50
7360;DHT22;3720;48.274;7.796;2023-03-01T13:53:56;15.50;86.20
7360;DHT22;3720;48.274;7.796;2023-03-01T13:56:36;15.50;86.50
7360;DHT22;3720;48.274;7.796;2023-03-01T13:59:15;15.40;86.80
7360;DHT22;3720;48.274;7.796;2023-03-01T14:01:52;15.40;86.90
7360;DHT22;3720;48.274;7.796;2023-03-01T14:04:26;15.30;86.00
7360;DHT22;3720;48.274;7.796;2023-03-01T14:07:12;15.30;87.10
7360;DHT22;3720;48.274;7.796;2023-03-01T14:09:47;15.30;86.10
7360;DHT22;3720;48.274;7.796;2023-03-01T14:12:33;15.30;86.20
7360;DHT22;3720;48.274;7.796;2023-03-01T14:15:17;15.20;86.80
7360;DHT22;3720;48.274;7.796;2023-03-01T14:17:59;15.10;86.50
7360;DHT22;3720;48.274;7.796;2023-03-01T14:20:39;14.90;86.60
7360;DHT22;3720;48.274;7.796;2023-03-01T14:23:14;14.90;87.00
7360;DHT22;3720;48.274;7.796;2023-03-01T14:25:50;14.90;87.40
7360;DHT22;3720;48.274;7.796;2023-03-01T14:28:24;15.00;86.60
7360;DHT22;3720;48.274;7.796;2023-03-01T14:31:00;15.10;87.20
7360;DHT22;3720;48.274;7.796;2023-03-01T14:33:34;15.00;86.40
7360;DHT22;3720;48.274;7.796;2023-03-01T14:36:09;15.00;86.10
7360;DHT22;3720;48.274;7.796;2023-03-01T14:38:43;14.90;86.30
7360;DHT22;3720;48.274;7.796;2023-03-01T14:41:17;14.90;86.00
7360;DHT22;3720;48.274;7.796;2023-03-01T14:43:52;14.80;86.50
7360;DHT22;3720;48.274;7.796;2023-03-01T14:46:31;14.80;87.40
7360;DHT22;3720;48.274;7.796;2023-03-01T14:49:10;14.80;87.00
7360;DHT22;3720;48.274;7.796;2023-03-01T14:51:49;15.00;86.00
7360;DHT22;3720;48.274;7.796;2023-03-01T14:54:25;15.00;85.90
7360;DHT22;3720;48.274;7.796;2023-03-01T14:56:59;14.90;85.20
7360;DHT22;3720;48.274;7.796;2023-03-01T14:59:33;14.70;86.70
7360;DHT22;3720;48.274;7.796;2023-03-01T15:02:12;14.60;85.90
7360;DHT22;3720;48.274;7.796;2023-03-01T15:04:50;14.50;86.90
7360;DHT22;3720;48.274;7.796;2023-03-01T15:07:27;14.40;87.60
7360;DHT22;3720;48.274;7.796;2023-03-01T15:10:02;14.10;87.00
7360;DHT22;3720;48.274;7.796;2023-03-01T15:12:37;14.00;87.20
7360;DHT22;3720;48.274;7.796;2023-03-01T15:15:37;13.90;88.30
7360;DHT22;3720;48.274;7.796;2023-03-01T15:18:20;13.80;88.50
7360;DHT22;3720;48.274;7.796;2023-03-01T15:20:53;13.70;88.90
7360;DHT22;3720;48.274;7.796;2023-03-01T15:23:27;13.50;89.30
7360;DHT22;3720;48.274;7.796;2023-03-01T15:26:00;13.40;88.80
7360;DHT22;3720;48.274;7.796;2023-03-01T15:28:37;13.40;90.00
7360;DHT22;3720;48.274;7.796;2023-03-01T15:31:17;13.30;89.70
7360;DHT22;3720;48.274;7.796;2023-03-01T15:33:52;13.10;89.80
7360;DHT22;3720;48.274;7.796;2023-03-01T15:36:43;13.00;90.20
7360;DHT22;3720;48.274;7.796;2023-03-01T15:39:40;13.00;90.40
7360;DHT22;3720;48.274;7.796;2023-03-01T15:42:36;13.00;90.50
7360;DHT22;3720;48.274;7.796;2023-03-01T15:45:10;13.00;90.50
7360;DHT22;3720;48.274;7.796;2023-03-01T15:47:47;12.90;90.30
7360;DHT22;3720;48.274;7.796;2023-03-01T15:50:24;12.80;90.70
7360;DHT22;3720;48.274;7.796;2023-03-01T15:52:58;12.80;91.00
7360;DHT22;3720;48.274;7.796;2023-03-01T15:55:32;12.70;91.20
7360;DHT22;3720;48.274;7.796;2023-03-01T15:58:10;12.60;91.30
7360;DHT22;3720;48.274;7.796;2023-03-01T16:00:42;12.60;91.20
7360;DHT22;3720;48.274;7.796;2023-03-01T16:03:15;12.40;91.80
7360;DHT22;3720;48.274;7.796;2023-03-01T16:05:49;12.40;91.70
7360;DHT22;3720;48.274;7.796;2023-03-01T16:08:22;12.40;91.90
7360;DHT22;3720;48.274;7.796;2023-03-01T16:10:54;12.40;91.80
7360;DHT22;3720;48.274;7.796;2023-03-01T16:13:26;12.30;91.80
7360;DHT22;3720;48.274;7.796;2023-03-01T16:15:58;12.10;92.40
7360;DHT22;3720;48.274;7.796;2023-03-01T16:18:30;11.90;92.10
7360;DHT22;3720;48.274;7.796;2023-03-01T16:21:04;11.70;92.50
7360;DHT22;3720;48.274;7.796;2023-03-01T16:23:36;11.50;93.00
7360;DHT22;3720;48.274;7.796;2023-03-01T16:26:08;11.40;93.40
7360;DHT22;3720;48.274;7.796;2023-03-01T16:28:40;11.30;93.70
7360;DHT22;3720;48.274;7.796;2023-03-01T16:31:17;11.20;93.60
7360;DHT22;3720;48.274;7.796;2023-03-01T16:33:50;11.00;93.80
7360;DHT22;3720;48.274;7.796;2023-03-01T16:36:26;10.80;94.20
7360;DHT22;3720;48.274;7.796;2023-03-01T16:38:59;10.70;94.70
7360;DHT22;3720;48.274;7.796;2023-03-01T16:41:33;10.50;94.90
7360;DHT22;3720;48.274;7.796;2023-03-01T16:44:05;10.40;95.50
7360;DHT22;3720;48.274;7.796;2023-03-01T16:46:36;10.20;95.70
7360;DHT22;3720;48.274;7.796;2023-03-01T16:49:08;10.10;96.00
7360;DHT22;3720;48.274;7.796;2023-03-01T16:51:42;10.00;96.50
7360;DHT22;3720;48.274;7.796;2023-03-01T16:54:14;9.90;96.70
7360;DHT22;3720;48.274;7.796;2023-03-01T16:56:46;9.70;97.20
7360;DHT22;3720;48.274;7.796;2023-03-01T16:59:18;9.50;97.60
7360;DHT22;3720;48.274;7.796;2023-03-01T17:01:50;9.50;97.90
7360;DHT22;3720;48.274;7.796;2023-03-01T17:04:22;9.40;98.20
7360;DHT22;3720;48.274;7.796;2023-03-01T17:06:55;9.30;98.50
7360;DHT22;3720;48.274;7.796;2023-03-01T17:09:27;9.20;98.90